createdAt,value
2022-09-23T00:00:24.334Z,72.75
2022-09-23T00:01:24.344Z,72.55
2022-09-23T00:02:24.375Z,72.55
2022-09-23T00:03:24.295Z,72.72
2022-09-23T00:04:24.283Z,72.82
2022-09-23T00:05:24.266Z,73.06
2022-09-23T00:06:24.265Z,73.06
2022-09-23T00:07:24.267Z,73.26
2022-09-23T00:08:24.227Z,73.16
2022-09-23T00:09:24.216Z,73.16
2022-09-23T00:10:24.195Z,73.16
2022-09-23T00:11:24.204Z,73.26
2022-09-23T00:12:24.197Z,73.36
2022-09-23T00:13:24.181Z,73.26
2022-09-23T00:14:24.157Z,73.26
2022-09-23T00:15:24.139Z,73.47
2022-09-23T00:16:24.226Z,73.57
2022-09-23T00:17:24.116Z,73.47
2022-09-23T00:18:24.097Z,73.36
2022-09-23T00:19:24.087Z,73.36
2022-09-23T00:20:24.068Z,73.67
2022-09-23T00:21:24.077Z,73.77
2022-09-23T00:22:24.038Z,73.67
2022-09-23T00:23:24.029Z,73.67
2022-09-23T00:24:24.008Z,73.50
2022-09-23T00:25:24.022Z,73.60
2022-09-23T00:26:24.015Z,73.81
2022-09-23T00:27:23.980Z,73.71
2022-09-23T00:28:23.959Z,74.01
2022-09-23T00:29:23.950Z,73.71
2022-09-23T00:30:23.962Z,73.71
2022-09-23T00:31:23.946Z,73.60
2022-09-23T00:32:23.908Z,73.60
2022-09-23T00:33:23.900Z,73.60
2022-09-23T00:34:23.915Z,73.60
2022-09-23T00:35:23.879Z,73.71
2022-09-23T00:36:23.876Z,73.71
2022-09-23T00:37:23.840Z,73.71
2022-09-23T00:38:23.820Z,73.71
2022-09-23T00:39:23.819Z,73.60
2022-09-23T00:40:23.899Z,73.71
2022-09-23T00:41:23.791Z,73.81
2022-09-23T00:42:23.794Z,73.81
2022-09-23T00:43:23.761Z,74.21
2022-09-23T00:44:23.752Z,73.71
2022-09-23T00:45:23.752Z,73.81
2022-09-23T00:46:23.767Z,73.81
2022-09-23T00:47:23.733Z,73.71
2022-09-23T00:48:23.702Z,73.91
2022-09-23T00:49:23.680Z,73.91
2022-09-23T00:50:23.679Z,73.91
2022-09-23T00:51:23.652Z,73.81
2022-09-23T00:52:23.681Z,73.60
2022-09-23T00:53:23.633Z,73.81
2022-09-23T00:54:23.603Z,74.21
2022-09-23T00:55:23.594Z,74.21
2022-09-23T00:56:23.585Z,73.91
2022-09-23T00:57:23.594Z,74.11
2022-09-23T00:58:23.553Z,74.01
2022-09-23T00:59:23.548Z,74.11
2022-09-23T01:00:23.531Z,74.21
2022-09-23T01:01:23.562Z,73.81
2022-09-23T01:02:23.592Z,74.11
2022-09-23T01:03:23.491Z,74.01
2022-09-23T01:04:23.483Z,74.25
2022-09-23T01:05:23.481Z,74.21
2022-09-23T01:06:23.505Z,74.42
2022-09-23T01:07:23.443Z,74.35
2022-09-23T01:08:23.446Z,74.15
2022-09-23T01:09:23.403Z,74.15
2022-09-23T01:10:23.395Z,74.35
2022-09-23T01:11:23.405Z,74.25
2022-09-23T01:12:23.387Z,74.15
2022-09-23T01:13:23.369Z,74.35
2022-09-23T01:14:23.343Z,74.15
2022-09-23T01:15:23.334Z,74.25
2022-09-23T01:16:23.384Z,74.15
2022-09-23T01:17:23.307Z,74.35
2022-09-23T01:18:23.298Z,74.05
2022-09-23T01:19:23.268Z,74.15
2022-09-23T01:20:23.265Z,74.05
2022-09-23T01:21:23.267Z,73.94
2022-09-23T01:22:23.239Z,74.25
2022-09-23T01:23:23.218Z,74.35
2022-09-23T01:24:23.228Z,74.25
2022-09-23T01:25:23.196Z,74.25
2022-09-23T01:26:23.206Z,74.15
2022-09-23T01:27:23.160Z,74.05
2022-09-23T01:28:23.157Z,74.15
2022-09-23T01:29:23.140Z,74.35
2022-09-23T01:30:23.129Z,74.55
2022-09-23T01:31:23.256Z,74.35
2022-09-23T01:32:23.119Z,74.25
2022-09-23T01:33:23.086Z,74.45
2022-09-23T01:34:23.069Z,74.45
2022-09-23T01:35:23.059Z,74.45
2022-09-23T01:36:23.069Z,74.66
2022-09-23T01:37:23.028Z,74.55
2022-09-23T01:38:23.019Z,74.76
2022-09-23T01:39:22.999Z,74.55
2022-09-23T01:40:23.024Z,74.35
2022-09-23T01:41:23.026Z,74.66
2022-09-23T01:42:22.961Z,74.66
2022-09-23T01:43:22.947Z,74.25
2022-09-23T01:44:22.935Z,74.25
2022-09-23T01:45:22.918Z,74.25
2022-09-23T01:46:22.931Z,74.35
2022-09-23T01:47:22.909Z,74.66
2022-09-23T01:48:22.921Z,74.45
2022-09-23T01:49:22.860Z,74.96
2022-09-23T01:50:22.858Z,74.76
2022-09-23T01:51:22.870Z,74.45
2022-09-23T01:52:22.842Z,74.49
2022-09-23T01:53:22.811Z,74.69
2022-09-23T01:54:22.799Z,74.90
2022-09-23T01:55:22.792Z,74.69
2022-09-23T01:56:22.794Z,74.49
2022-09-23T01:57:22.772Z,74.59
2022-09-23T01:58:22.755Z,74.86
2022-09-23T01:59:22.732Z,74.79
2022-09-23T02:00:22.733Z,74.79
2022-09-23T02:01:22.786Z,74.69
2022-09-23T02:02:22.736Z,74.79
2022-09-23T02:03:22.673Z,74.79
2022-09-23T02:04:22.674Z,75.10
2022-09-23T02:05:22.650Z,75.41
2022-09-23T02:06:22.667Z,75.51
2022-09-23T02:07:22.641Z,75.61
2022-09-23T02:08:22.622Z,75.41
2022-09-23T02:09:22.593Z,75.31
2022-09-23T02:10:22.582Z,75.00
2022-09-23T02:11:22.593Z,75.20
2022-09-23T02:12:22.554Z,75.41
2022-09-23T02:13:22.543Z,75.51
2022-09-23T02:14:22.537Z,75.20
2022-09-23T02:15:22.523Z,75.31
2022-09-23T02:16:22.606Z,75.51
2022-09-23T02:17:22.491Z,75.51
2022-09-23T02:18:22.488Z,75.41
2022-09-23T02:19:22.482Z,75.41
2022-09-23T02:20:22.484Z,75.51
2022-09-23T02:21:22.467Z,75.51
2022-09-23T02:22:22.427Z,75.31
2022-09-23T02:23:22.416Z,75.20
2022-09-23T02:24:22.398Z,75.20
2022-09-23T02:25:22.383Z,75.44
2022-09-23T02:26:22.397Z,75.61
2022-09-23T02:27:22.354Z,75.61
2022-09-23T02:28:22.374Z,75.51
2022-09-23T02:29:22.315Z,75.82
2022-09-23T02:30:22.316Z,75.41
2022-09-23T02:31:22.348Z,75.54
2022-09-23T02:32:22.286Z,75.61
2022-09-23T02:33:22.266Z,75.71
2022-09-23T02:34:22.257Z,75.71
2022-09-23T02:35:22.237Z,75.65
2022-09-23T02:36:22.259Z,75.44
2022-09-23T02:37:22.216Z,76.06
2022-09-23T02:38:22.216Z,75.85
2022-09-23T02:39:22.187Z,75.65
2022-09-23T02:40:22.285Z,75.75
2022-09-23T02:41:22.192Z,75.61
2022-09-23T02:42:22.147Z,75.54
2022-09-23T02:43:22.138Z,75.13
2022-09-23T02:44:22.141Z,75.34
2022-09-23T02:45:22.108Z,75.24
2022-09-23T02:46:22.191Z,75.34
2022-09-23T02:47:22.079Z,75.34
2022-09-23T02:48:22.076Z,75.24
2022-09-23T02:49:22.059Z,75.65
2022-09-23T02:50:22.056Z,75.65
2022-09-23T02:51:22.050Z,75.65
2022-09-23T02:52:22.019Z,75.75
2022-09-23T02:53:21.999Z,75.95
2022-09-23T02:54:21.998Z,75.95
2022-09-23T02:55:21.972Z,75.65
2022-09-23T02:56:21.990Z,75.44
2022-09-23T02:57:21.949Z,75.75
2022-09-23T02:58:21.939Z,75.44
2022-09-23T02:59:21.948Z,75.65
2022-09-23T03:00:21.923Z,75.95
2022-09-23T03:01:21.987Z,75.44
2022-09-23T03:02:21.971Z,75.75
2022-09-23T03:03:21.870Z,75.65
2022-09-23T03:04:21.858Z,75.75
2022-09-23T03:05:21.850Z,75.65
2022-09-23T03:06:21.858Z,75.95
2022-09-23T03:07:21.829Z,76.16
2022-09-23T03:08:21.809Z,76.06
2022-09-23T03:09:21.791Z,76.06
2022-09-23T03:10:21.783Z,75.95
2022-09-23T03:11:21.786Z,76.16
2022-09-23T03:12:21.754Z,76.16
2022-09-23T03:13:25.046Z,76.46
2022-09-23T03:14:22.731Z,76.19
2022-09-23T03:15:21.717Z,76.09
2022-09-23T03:16:21.787Z,75.89
2022-09-23T03:17:21.683Z,75.89
2022-09-23T03:18:21.684Z,76.19
2022-09-23T03:19:21.653Z,76.50
2022-09-23T03:20:21.651Z,76.29
2022-09-23T03:21:21.652Z,75.99
2022-09-23T03:22:21.627Z,76.09
2022-09-23T03:23:21.603Z,76.19
2022-09-23T03:24:21.595Z,75.99
2022-09-23T03:25:21.574Z,75.89
2022-09-23T03:26:21.584Z,75.89
2022-09-23T03:27:21.554Z,76.09
2022-09-23T03:28:21.533Z,76.09
2022-09-23T03:29:21.524Z,76.09
2022-09-23T03:30:21.515Z,75.99
2022-09-23T03:31:21.536Z,75.99
2022-09-23T03:32:21.485Z,76.09
2022-09-23T03:33:23.873Z,76.29
2022-09-23T03:34:21.455Z,76.19
2022-09-23T03:35:21.434Z,76.50
2022-09-23T03:36:21.455Z,76.40
2022-09-23T03:37:21.415Z,76.29
2022-09-23T03:38:21.406Z,76.19
2022-09-23T03:39:21.386Z,76.09
2022-09-23T03:40:21.433Z,76.40
2022-09-23T03:41:21.405Z,76.19
2022-09-23T03:42:21.353Z,76.40
2022-09-23T03:43:21.335Z,75.99
2022-09-23T03:44:21.327Z,76.50
2022-09-23T03:45:21.372Z,76.19
2022-09-23T03:46:21.323Z,76.19
2022-09-23T03:47:21.285Z,76.09
2022-09-23T03:48:21.276Z,76.50
2022-09-23T03:49:21.256Z,76.40
2022-09-23T03:50:21.247Z,76.29
2022-09-23T03:51:21.258Z,76.29
2022-09-23T03:52:21.224Z,76.19
2022-09-23T03:53:21.216Z,76.40
2022-09-23T03:54:21.201Z,76.19
2022-09-23T03:55:21.189Z,76.40
2022-09-23T03:56:21.188Z,76.60
2022-09-23T03:57:21.152Z,76.50
2022-09-23T03:58:21.137Z,76.90
2022-09-23T03:59:21.129Z,76.60
2022-09-23T04:00:21.110Z,76.70
2022-09-23T04:01:21.181Z,76.40
2022-09-23T04:02:21.129Z,76.60
2022-09-23T04:03:21.069Z,76.50
2022-09-23T04:04:21.058Z,76.50
2022-09-23T04:05:21.058Z,76.60
2022-09-23T04:06:21.062Z,76.50
2022-09-23T04:07:21.016Z,76.50
2022-09-23T04:08:21.005Z,76.50
2022-09-23T04:09:20.989Z,76.81
2022-09-23T04:10:20.980Z,76.81
2022-09-23T04:11:21.003Z,77.11
2022-09-23T04:12:20.950Z,76.70
2022-09-23T04:13:20.939Z,76.90
2022-09-23T04:14:20.930Z,76.90
2022-09-23T04:15:20.915Z,77.01
2022-09-23T04:16:20.979Z,76.81
2022-09-23T04:17:20.877Z,76.81
2022-09-23T04:18:20.870Z,76.90
2022-09-23T04:19:20.852Z,76.81
2022-09-23T04:20:20.852Z,76.60
2022-09-23T04:21:20.840Z,76.60
2022-09-23T04:22:20.835Z,77.22
2022-09-23T04:23:20.800Z,77.01
2022-09-23T04:24:20.790Z,76.81
2022-09-23T04:25:20.773Z,76.81
2022-09-23T04:26:20.788Z,76.81
2022-09-23T04:27:20.742Z,76.94
2022-09-23T04:28:20.742Z,76.70
2022-09-23T04:29:20.712Z,76.50
2022-09-23T04:30:20.720Z,76.64
2022-09-23T04:31:20.761Z,76.74
2022-09-23T04:32:20.686Z,76.60
2022-09-23T04:33:20.662Z,76.70
2022-09-23T04:34:20.660Z,76.60
2022-09-23T04:35:20.632Z,76.90
2022-09-23T04:36:20.661Z,76.90
2022-09-23T04:37:20.612Z,76.90
2022-09-23T04:38:20.604Z,77.04
2022-09-23T04:39:20.583Z,77.45
2022-09-23T04:40:20.603Z,77.15
2022-09-23T04:41:20.573Z,76.84
2022-09-23T04:42:20.551Z,76.84
2022-09-23T04:43:20.523Z,76.94
2022-09-23T04:44:20.524Z,77.04
2022-09-23T04:45:20.505Z,77.45
2022-09-23T04:46:20.550Z,77.15
2022-09-23T04:47:20.477Z,77.15
2022-09-23T04:48:20.464Z,77.66
2022-09-23T04:49:20.444Z,77.25
2022-09-23T04:50:20.444Z,76.94
2022-09-23T04:51:20.454Z,77.04
2022-09-23T04:52:20.415Z,77.35
2022-09-23T04:53:20.409Z,77.04
2022-09-23T04:54:20.392Z,77.25
2022-09-23T04:55:20.365Z,77.45
2022-09-23T04:56:20.386Z,77.35
2022-09-23T04:57:20.344Z,77.66
2022-09-23T04:58:20.335Z,77.66
2022-09-23T04:59:20.315Z,77.66
2022-09-23T05:00:20.312Z,77.76
2022-09-23T05:01:20.364Z,77.66
2022-09-23T05:02:20.314Z,77.86
2022-09-23T05:03:20.256Z,78.27
2022-09-23T05:04:20.256Z,77.97
2022-09-23T05:05:20.236Z,77.45
2022-09-23T05:06:20.228Z,77.25
2022-09-23T05:07:20.236Z,77.56
2022-09-23T05:08:20.196Z,77.59
2022-09-23T05:09:20.181Z,77.76
2022-09-23T05:10:20.175Z,77.66
2022-09-23T05:11:20.157Z,77.39
2022-09-23T05:12:20.181Z,77.35
2022-09-23T05:13:20.127Z,77.66
2022-09-23T05:14:20.117Z,77.86
2022-09-23T05:15:20.109Z,77.70
2022-09-23T05:16:20.194Z,77.66
2022-09-23T05:17:20.088Z,77.70
2022-09-23T05:18:20.920Z,77.45
2022-09-23T05:19:20.047Z,77.25
2022-09-23T05:20:20.038Z,77.45
2022-09-23T05:21:20.069Z,77.70
2022-09-23T05:22:20.008Z,77.70
2022-09-23T05:23:20.006Z,77.39
2022-09-23T05:24:19.979Z,77.90
2022-09-23T05:25:19.992Z,77.90
2022-09-23T05:26:19.950Z,77.70
2022-09-23T05:27:19.978Z,77.19
2022-09-23T05:28:19.935Z,77.29
2022-09-23T05:29:19.914Z,77.49
2022-09-23T05:30:19.899Z,77.39
2022-09-23T05:31:20.741Z,77.39
2022-09-23T05:32:19.968Z,77.59
2022-09-23T05:33:19.859Z,77.49
2022-09-23T05:34:19.861Z,77.59
2022-09-23T05:35:19.840Z,77.70
2022-09-23T05:36:19.820Z,78.00
2022-09-23T05:37:19.843Z,78.11
2022-09-23T05:38:19.798Z,78.00
2022-09-23T05:39:19.803Z,77.90
2022-09-23T05:40:19.803Z,78.00
2022-09-23T05:41:19.765Z,78.31
2022-09-23T05:42:19.761Z,77.90
2022-09-23T05:43:19.730Z,77.90
2022-09-23T05:44:19.711Z,77.90
2022-09-23T05:45:19.703Z,78.11
2022-09-23T05:46:19.787Z,78.20
2022-09-23T05:47:19.718Z,78.41
2022-09-23T05:48:19.660Z,78.61
2022-09-23T05:49:19.652Z,78.82
2022-09-23T05:50:19.747Z,78.52
2022-09-23T05:51:19.632Z,78.52
2022-09-23T05:52:19.630Z,78.41
2022-09-23T05:53:19.593Z,78.41
2022-09-23T05:54:19.572Z,78.41
2022-09-23T05:55:19.572Z,78.41
2022-09-23T05:56:19.552Z,78.52
2022-09-23T05:57:19.571Z,78.72
2022-09-23T05:58:19.523Z,78.52
2022-09-23T05:59:19.519Z,78.61
2022-09-23T06:00:19.528Z,78.52
2022-09-23T06:01:19.579Z,78.20
2022-09-23T06:02:19.521Z,78.27
2022-09-23T06:03:19.506Z,77.86
2022-09-23T06:04:19.453Z,78.27
2022-09-23T06:05:19.434Z,78.07
2022-09-23T06:06:19.444Z,78.07
2022-09-23T06:07:19.413Z,78.27
2022-09-23T06:08:19.394Z,78.07
2022-09-23T06:09:19.385Z,77.97
2022-09-23T06:10:19.372Z,77.66
2022-09-23T06:11:19.365Z,77.66
2022-09-23T06:12:19.367Z,77.97
2022-09-23T06:13:19.337Z,77.45
2022-09-23T06:14:19.314Z,77.25
2022-09-23T06:15:19.305Z,77.42
2022-09-23T06:16:19.320Z,77.11
2022-09-23T06:17:19.299Z,77.22
2022-09-23T06:18:19.257Z,77.22
2022-09-23T06:19:19.252Z,77.01
2022-09-23T06:20:19.235Z,77.11
2022-09-23T06:21:19.225Z,76.90
2022-09-23T06:22:19.234Z,76.90
2022-09-23T06:23:21.403Z,76.90
2022-09-23T06:24:22.957Z,76.70
2022-09-23T06:25:20.168Z,76.26
2022-09-23T06:26:19.146Z,76.36
2022-09-23T06:27:19.167Z,76.77
2022-09-23T06:28:19.125Z,76.56
2022-09-23T06:29:19.107Z,76.16
2022-09-23T06:30:19.101Z,76.06
2022-09-23T06:31:19.115Z,76.16
2022-09-23T06:32:19.090Z,76.16
2022-09-23T06:33:30.484Z,75.85
2022-09-23T06:34:20.561Z,75.65
2022-09-23T06:35:25.918Z,75.65
2022-09-23T06:36:37.895Z,75.75
2022-09-23T06:37:20.881Z,76.53
2022-09-23T06:38:18.988Z,75.92
2022-09-23T06:39:18.978Z,75.51
2022-09-23T06:40:18.996Z,76.12
2022-09-23T06:41:18.958Z,75.71
2022-09-23T06:42:18.958Z,75.41
2022-09-23T06:43:18.927Z,74.90
2022-09-23T06:44:18.908Z,75.20
2022-09-23T06:45:18.904Z,74.79
2022-09-23T06:46:18.950Z,74.90
2022-09-23T06:47:18.981Z,74.69
2022-09-23T06:48:18.860Z,74.76
2022-09-23T06:49:18.848Z,74.25
2022-09-23T06:50:18.840Z,74.45
2022-09-23T06:51:18.823Z,74.55
2022-09-23T06:52:18.828Z,74.15
2022-09-23T06:53:18.790Z,74.35
2022-09-23T06:54:18.770Z,74.55
2022-09-23T06:55:18.779Z,73.74
2022-09-23T06:56:18.760Z,74.15
2022-09-23T06:57:18.761Z,74.05
2022-09-23T06:58:18.745Z,73.84
2022-09-23T06:59:18.712Z,73.84
2022-09-23T07:00:18.692Z,73.64
2022-09-23T07:01:18.741Z,73.30
2022-09-23T07:02:18.778Z,73.50
2022-09-23T07:03:18.663Z,73.71
2022-09-23T07:04:18.641Z,73.81
2022-09-23T07:05:18.631Z,74.11
2022-09-23T07:06:18.612Z,74.18
2022-09-23T07:07:18.633Z,74.38
2022-09-23T07:08:18.590Z,73.47
2022-09-23T07:09:18.582Z,73.47
2022-09-23T07:10:18.574Z,72.96
2022-09-23T07:11:18.553Z,72.86
2022-09-23T07:12:18.564Z,73.06
2022-09-23T07:13:18.524Z,72.96
2022-09-23T07:14:18.519Z,73.06
2022-09-23T07:15:18.531Z,73.06
2022-09-23T07:16:18.545Z,73.16
2022-09-23T07:17:18.497Z,72.45
2022-09-23T07:18:18.454Z,73.06
2022-09-23T07:19:18.451Z,72.82
2022-09-23T07:20:18.432Z,72.11
2022-09-23T07:21:18.427Z,72.31
2022-09-23T07:22:18.435Z,72.31
2022-09-23T07:23:18.417Z,72.01
2022-09-23T07:24:18.375Z,72.62
2022-09-23T07:25:18.375Z,72.52
2022-09-23T07:26:18.362Z,71.91
2022-09-23T07:27:18.368Z,72.82
2022-09-23T07:28:18.325Z,72.89
2022-09-23T07:29:18.333Z,72.69
2022-09-23T07:30:24.447Z,72.48
2022-09-23T07:31:30.670Z,72.38
2022-09-23T07:32:19.332Z,72.38
2022-09-23T07:33:30.912Z,73.19
2022-09-23T07:34:19.397Z,72.48
2022-09-23T07:35:18.237Z,72.75
2022-09-23T07:36:18.217Z,72.55
2022-09-23T07:37:18.240Z,72.34
2022-09-23T07:38:18.208Z,72.45
2022-09-23T07:39:18.184Z,71.94
2022-09-23T07:40:18.202Z,71.64
2022-09-23T07:41:18.149Z,71.73
2022-09-23T07:42:18.159Z,72.04
2022-09-23T07:43:18.130Z,72.14
2022-09-23T07:44:18.108Z,71.30
2022-09-23T07:45:18.098Z,70.72
2022-09-23T07:46:18.165Z,71.40
2022-09-23T07:47:18.098Z,70.99
2022-09-23T07:48:18.057Z,70.68
2022-09-23T07:49:18.047Z,70.58
2022-09-23T07:50:18.029Z,70.28
2022-09-23T07:51:18.046Z,70.38
2022-09-23T07:52:17.999Z,71.19
2022-09-23T07:53:17.989Z,71.09
2022-09-23T07:54:17.992Z,71.09
2022-09-23T07:55:20.974Z,70.58
2022-09-23T07:56:17.970Z,70.55
2022-09-23T07:57:17.959Z,71.06
2022-09-23T07:58:17.920Z,71.36
2022-09-23T07:59:17.919Z,71.67
2022-09-23T08:00:17.898Z,70.96
2022-09-23T08:01:18.020Z,70.86
2022-09-23T08:02:17.990Z,70.62
2022-09-23T08:03:17.931Z,70.52
2022-09-23T08:04:17.858Z,70.52
2022-09-23T08:05:17.847Z,70.52
2022-09-23T08:06:17.830Z,70.52
2022-09-23T08:07:17.804Z,70.01
2022-09-23T08:08:17.791Z,70.62
2022-09-23T08:09:17.780Z,70.59
2022-09-23T08:10:17.762Z,71.20
2022-09-23T08:11:17.774Z,71.40
2022-09-23T08:12:17.732Z,70.79
2022-09-23T08:13:17.725Z,70.18
2022-09-23T08:14:17.702Z,69.67
2022-09-23T08:15:17.703Z,69.23
2022-09-23T08:16:17.805Z,69.03
2022-09-23T08:17:17.672Z,68.12
2022-09-23T08:18:17.665Z,68.42
2022-09-23T08:19:17.676Z,68.12
2022-09-23T08:20:17.651Z,68.59
2022-09-23T08:21:17.634Z,68.79
2022-09-23T08:22:17.605Z,69.00
2022-09-23T08:23:17.593Z,67.50
2022-09-23T08:24:17.574Z,67.58
2022-09-23T08:25:20.499Z,68.08
2022-09-23T08:26:22.257Z,67.98
2022-09-23T08:27:42.413Z,68.19
2022-09-23T08:28:18.768Z,67.38
2022-09-23T08:29:17.527Z,68.59
2022-09-23T08:30:17.497Z,67.14
2022-09-23T08:31:17.587Z,67.34
2022-09-23T08:32:17.470Z,68.05
2022-09-23T08:33:22.475Z,68.56
2022-09-23T08:34:18.446Z,68.43
2022-09-23T08:35:17.425Z,67.31
2022-09-23T08:36:17.438Z,67.11
2022-09-23T08:37:17.398Z,68.02
2022-09-23T08:38:17.387Z,68.23
2022-09-23T08:39:17.373Z,67.92
2022-09-23T08:40:17.442Z,68.02
2022-09-23T08:41:17.371Z,68.19
2022-09-23T08:42:17.343Z,67.48
2022-09-23T08:43:17.328Z,67.58
2022-09-23T08:44:17.333Z,67.38
2022-09-23T08:45:17.295Z,66.57
2022-09-23T08:46:17.327Z,66.09
2022-09-23T08:47:17.259Z,66.91
2022-09-23T08:48:17.251Z,66.50
2022-09-23T08:49:17.239Z,66.91
2022-09-23T08:50:17.232Z,67.11
2022-09-23T08:51:17.241Z,66.97
2022-09-23T08:52:17.211Z,66.97
2022-09-23T08:53:17.182Z,66.57
2022-09-23T08:54:17.178Z,67.11
2022-09-23T08:55:17.161Z,67.89
2022-09-23T08:56:17.191Z,67.92
2022-09-23T08:57:17.131Z,67.99
2022-09-23T08:58:25.611Z,67.79
2022-09-23T08:59:18.111Z,67.18
2022-09-23T09:00:17.104Z,67.48
2022-09-23T09:01:17.177Z,66.97
2022-09-23T09:02:17.146Z,67.28
2022-09-23T09:03:17.053Z,67.48
2022-09-23T09:04:17.043Z,67.18
2022-09-23T09:05:17.033Z,67.18
2022-09-23T09:06:17.023Z,67.14
2022-09-23T09:07:36.795Z,67.05
2022-09-23T09:08:17.994Z,66.64
2022-09-23T09:09:16.996Z,66.64
2022-09-23T09:10:16.965Z,67.35
2022-09-23T09:11:16.953Z,67.45
2022-09-23T09:12:16.956Z,66.94
2022-09-23T09:13:16.932Z,66.44
2022-09-23T09:14:16.905Z,66.84
2022-09-23T09:15:16.898Z,66.81
2022-09-23T09:16:21.006Z,66.13
2022-09-23T09:17:17.880Z,66.50
2022-09-23T09:18:16.868Z,66.10
2022-09-23T09:19:16.843Z,65.19
2022-09-23T09:20:16.828Z,66.41
2022-09-23T09:21:16.836Z,65.70
2022-09-23T09:22:16.925Z,65.70
2022-09-23T09:23:16.786Z,65.09
2022-09-23T09:24:16.780Z,64.99
2022-09-23T09:25:16.767Z,64.89
2022-09-23T09:26:16.778Z,65.29
2022-09-23T09:27:16.739Z,65.70
2022-09-23T09:28:16.731Z,65.50
2022-09-23T09:29:34.160Z,65.50
2022-09-23T09:30:17.690Z,65.36
2022-09-23T09:31:16.820Z,64.86
2022-09-23T09:32:16.669Z,65.47
2022-09-23T09:33:16.661Z,65.16
2022-09-23T09:34:16.640Z,64.42
2022-09-23T09:35:16.649Z,64.12
2022-09-23T09:36:16.640Z,63.71
2022-09-23T09:37:16.608Z,63.71
2022-09-23T09:38:16.590Z,64.19
2022-09-23T09:39:16.581Z,64.19
2022-09-23T09:40:16.628Z,63.18
2022-09-23T09:41:16.572Z,62.87
2022-09-23T09:42:16.551Z,62.77
2022-09-23T09:43:16.536Z,62.98
2022-09-23T09:44:16.515Z,62.98
2022-09-23T09:45:16.502Z,63.45
2022-09-23T09:46:16.580Z,63.76
2022-09-23T09:47:16.472Z,62.64
2022-09-23T09:48:16.455Z,61.94
2022-09-23T09:49:16.450Z,63.45
2022-09-23T09:50:16.443Z,62.44
2022-09-23T09:51:16.454Z,62.44
2022-09-23T09:52:16.402Z,62.14
2022-09-23T09:53:16.340Z,62.14
2022-09-23T09:54:16.320Z,62.51
2022-09-23T09:55:16.329Z,62.51
2022-09-23T09:56:16.324Z,62.01
2022-09-23T09:57:16.279Z,62.88
2022-09-23T09:58:16.272Z,62.28
2022-09-23T09:59:16.260Z,61.88
2022-09-23T10:00:16.240Z,61.98
2022-09-23T10:01:16.292Z,60.49
2022-09-23T10:02:16.215Z,61.37
2022-09-23T10:03:16.234Z,61.47
2022-09-23T10:04:16.214Z,61.77
2022-09-23T10:05:16.179Z,61.65
2022-09-23T10:06:16.188Z,61.04
2022-09-23T10:07:16.149Z,61.04
2022-09-23T10:08:16.169Z,60.44
2022-09-23T10:09:16.118Z,61.35
2022-09-23T10:10:31.800Z,60.64
2022-09-23T10:11:17.126Z,60.84
2022-09-23T10:12:16.086Z,60.10
2022-09-23T10:13:16.089Z,60.41
2022-09-23T10:14:16.063Z,60.31
2022-09-23T10:15:16.055Z,59.80
2022-09-23T10:16:16.081Z,61.21
2022-09-23T10:17:16.037Z,60.91
2022-09-23T10:18:16.018Z,60.51
2022-09-23T10:19:15.991Z,59.47
2022-09-23T10:20:16.060Z,61.08
2022-09-23T10:21:15.971Z,60.98
2022-09-23T10:22:15.969Z,59.97
2022-09-23T10:23:15.942Z,60.08
2022-09-23T10:24:15.933Z,59.77
2022-09-23T10:25:15.911Z,59.88
2022-09-23T10:26:15.921Z,59.77
2022-09-23T10:27:15.913Z,60.88
2022-09-23T10:28:15.885Z,58.97
2022-09-23T10:29:15.862Z,60.48
2022-09-23T10:30:15.884Z,58.97
2022-09-23T10:31:15.929Z,60.05
2022-09-23T10:32:15.814Z,59.84
2022-09-23T10:33:15.810Z,59.14
2022-09-23T10:34:15.784Z,59.64
2022-09-23T10:35:15.779Z,60.35
2022-09-23T10:36:15.784Z,59.24
2022-09-23T10:37:15.787Z,60.25
2022-09-23T10:38:15.745Z,59.55
2022-09-23T10:39:15.729Z,60.25
2022-09-23T10:40:15.834Z,59.34
2022-09-23T10:41:15.698Z,58.84
2022-09-23T10:42:15.709Z,58.61
2022-09-23T10:43:15.679Z,58.41
2022-09-23T10:44:15.650Z,59.28
2022-09-23T10:45:15.650Z,57.98
2022-09-23T10:46:15.723Z,57.57
2022-09-23T10:47:15.633Z,58.65
2022-09-23T10:48:15.606Z,57.22
2022-09-23T10:49:15.595Z,55.18
2022-09-23T10:50:15.639Z,54.55
2022-09-23T10:51:15.593Z,54.15
2022-09-23T10:52:15.546Z,54.43
2022-09-23T10:53:15.545Z,53.85
2022-09-23T10:54:15.528Z,53.22
2022-09-23T10:55:15.579Z,52.49
2022-09-23T10:56:15.521Z,50.07
2022-09-23T10:57:15.489Z,50.22
2022-09-23T10:58:15.471Z,50.39
2022-09-23T10:59:15.460Z,47.87
2022-09-23T11:00:15.515Z,49.25
2022-09-23T11:01:15.506Z,47.80
2022-09-23T11:02:15.452Z,46.61
2022-09-23T11:03:15.434Z,47.30
2022-09-23T11:04:15.456Z,47.98
2022-09-23T11:05:15.390Z,47.36
2022-09-23T11:06:15.398Z,46.54
2022-09-23T11:07:15.366Z,47.03
2022-09-23T11:08:15.348Z,46.54
2022-09-23T11:09:15.335Z,45.42
2022-09-23T11:10:28.961Z,44.12
2022-09-23T11:11:16.340Z,44.20
2022-09-23T11:12:15.291Z,44.80
2022-09-23T11:13:15.299Z,44.08
2022-09-23T11:14:15.271Z,43.54
2022-09-23T11:15:15.263Z,43.54
2022-09-23T11:16:15.294Z,42.80
2022-09-23T11:17:15.238Z,40.66
2022-09-23T11:18:15.215Z,41.60
2022-09-23T11:19:15.214Z,41.47
2022-09-23T11:20:15.197Z,42.99
2022-09-23T11:21:15.221Z,42.57
2022-09-23T11:22:15.171Z,41.28
2022-09-23T11:23:15.173Z,42.09
2022-09-23T11:24:15.141Z,43.19
2022-09-23T11:25:15.151Z,43.66
2022-09-23T11:26:15.141Z,43.42
2022-09-23T11:27:15.112Z,43.01
2022-09-23T11:28:15.097Z,41.71
2022-09-23T11:29:15.084Z,41.52
2022-09-23T11:30:15.100Z,41.22
2022-09-23T11:31:15.095Z,41.74
2022-09-23T11:32:15.045Z,41.74
2022-09-23T11:33:15.039Z,41.83
2022-09-23T11:34:15.017Z,42.17
2022-09-23T11:35:15.033Z,43.41
2022-09-23T11:36:14.996Z,43.73
2022-09-23T11:37:14.987Z,43.43
2022-09-23T11:38:14.998Z,43.52
2022-09-23T11:39:14.960Z,44.23
2022-09-23T11:40:15.146Z,43.63
2022-09-23T11:41:14.943Z,43.35
2022-09-23T11:42:14.912Z,43.52
2022-09-23T11:43:14.902Z,43.71
2022-09-23T11:44:14.895Z,44.42
2022-09-23T11:45:15.087Z,43.63
2022-09-23T11:46:14.912Z,44.62
2022-09-23T11:47:14.865Z,43.33
2022-09-23T11:48:14.847Z,44.35
2022-09-23T11:49:14.839Z,44.72
2022-09-23T11:50:14.846Z,43.82
2022-09-23T11:51:14.807Z,44.72
2022-09-23T11:52:14.796Z,44.82
2022-09-23T11:53:14.787Z,45.82
2022-09-23T11:54:19.760Z,45.22
2022-09-23T11:55:21.837Z,46.12
2022-09-23T11:56:25.024Z,45.62
2022-09-23T11:57:15.739Z,45.36
2022-09-23T11:58:23.785Z,45.96
2022-09-23T11:59:15.944Z,44.99
2022-09-23T12:00:14.695Z,47.10
2022-09-23T12:01:14.746Z,48.02
2022-09-23T12:02:20.057Z,47.63
2022-09-23T12:03:15.759Z,48.52
2022-09-23T12:04:20.444Z,46.65
2022-09-23T12:05:15.753Z,47.25
2022-09-23T12:06:14.615Z,47.37
2022-09-23T12:07:14.620Z,47.77
2022-09-23T12:08:14.598Z,48.57
2022-09-23T12:09:14.584Z,50.37
2022-09-23T12:10:14.588Z,48.99
2022-09-23T12:11:14.558Z,49.79
2022-09-23T12:12:14.541Z,49.74
2022-09-23T12:13:14.537Z,51.34
2022-09-23T12:14:14.511Z,50.44
2022-09-23T12:15:14.527Z,50.94
2022-09-23T12:16:14.547Z,50.76
2022-09-23T12:17:14.482Z,51.17
2022-09-23T12:18:14.482Z,51.37
2022-09-23T12:19:14.452Z,51.46
2022-09-23T12:20:14.463Z,51.99
2022-09-23T12:21:32.736Z,52.89
2022-09-23T12:22:15.403Z,51.69
2022-09-23T12:23:14.403Z,53.32
2022-09-23T12:24:18.434Z,53.52
2022-09-23T12:25:14.396Z,53.52
2022-09-23T12:26:14.355Z,54.43
2022-09-23T12:27:14.357Z,53.72
2022-09-23T12:28:14.335Z,54.25
2022-09-23T12:29:14.337Z,52.94
2022-09-23T12:30:14.336Z,53.95
2022-09-23T12:31:14.355Z,53.67
2022-09-23T12:32:14.297Z,53.47
2022-09-23T12:33:14.279Z,53.27
2022-09-23T12:34:14.262Z,53.39
2022-09-23T12:35:14.280Z,52.80
2022-09-23T12:36:14.229Z,54.13
2022-09-23T12:37:14.220Z,53.92
2022-09-23T12:38:14.212Z,54.33
2022-09-23T12:39:14.199Z,55.33
2022-09-23T12:40:14.249Z,54.93
2022-09-23T12:41:14.163Z,55.03
2022-09-23T12:42:14.149Z,55.83
2022-09-23T12:43:14.144Z,54.65
2022-09-23T12:44:14.123Z,54.85
2022-09-23T12:45:14.143Z,54.85
2022-09-23T12:46:14.156Z,54.75
2022-09-23T12:47:14.097Z,55.86
2022-09-23T12:48:14.086Z,55.86
2022-09-23T12:49:14.065Z,55.96
2022-09-23T12:50:17.711Z,55.96
2022-09-23T12:51:15.037Z,55.93
2022-09-23T12:52:14.024Z,56.34